CheckWX is a tool to help pilots better visualize weather data.  It is not intended as a substitute for an official pre-flight weather briefing.

18:02:33 UTC

KHHV METAR
Hoover Diana
Hoover Diana, Texas, USA
Current

8 mins ago

KHHV 171755Z AUTO 14009KT 10SM CLR 26/21 A2977 RMK A01
Observed
Feb-17 @ 17:55 UTC
Wind
  • 140° at 9 KTS
Visibility
10 SM
Flight Rules
VFR
Cloud Levels
  • Clear skies
Temperature
26°C / 79°F
Dewpoint
21°C / 70°F
Humidity
74%
Altimeter
29.77" Hg
Pressure
1008.12 hPa
Previous

28 mins ago

KHHV 171735Z AUTO 13010KT 10SM CLR 26/21 A2977 RMK A01
Observed
Feb-17 @ 17:35 UTC
Wind
  • 130° at 10 KTS
Visibility
10 SM
Flight Rules
VFR
Cloud Levels
  • Clear skies
Temperature
26°C / 79°F
Dewpoint
21°C / 70°F
Humidity
74%
Altimeter
29.77" Hg
Pressure
1008.12 hPa
Previous

48 mins ago

KHHV 171715Z AUTO 13008KT 10SM CLR 26/21 A2977 RMK A01
Observed
Feb-17 @ 17:15 UTC
Wind
  • 130° at 8 KTS
Visibility
10 SM
Flight Rules
VFR
Cloud Levels
  • Clear skies
Temperature
26°C / 79°F
Dewpoint
21°C / 70°F
Humidity
74%
Altimeter
29.77" Hg
Pressure
1008.12 hPa